Claremont, North Carolina
Current Conditions -  °F | °C
As of 9:35 PM on Friday 24 Oct 2014 (Local Time) from KSVH Reporting Station
Clear Clear  
Wind Chill: 46°   Ceiling: Unl
Heat Index: 46°   Visibility: 10mi
Dew Point: 44°   Wind: 3mph
Humidity: 90%   Direction: 250°WSW
Pressure: 30.01"   Gusts: NA
Location:  35.71°N, 81.15°W
Report Text: KSVH 250135Z AUTO 25003KT 10SM CLR 08/07 A3001 RMK AO2 T00800065
Loading
Personal Weather Stations






























Interactive Weather Map
Tropical Storm Tracking
New forecast layout! Learn more

10-Day Weather Forecast

Advertisements
Track Severe Weather on mobile